Pagrindinis puslapis
METAR-TAF:

METAR-TAF

Oro uostai :

Pertas, Australija

platuma: 31-56S, ilguma: 115-57E, Aukštis: 20 m

Dabartinis oras

Ataskaita buvo paskelbta 39 minutes, ne 15:00 UTC
Vėjas 4 kt iš Šiaurės Rytų
Temperatūra 13°C
Drėgmė 94%
Slėgis 1027 hPa
Matomumas: 0500 m
Išsisklaidę debesys ne aukštis 3800 ft
Su prošvaistėmis ne aukštis 100 ft
rūkas

METAR: YPPH 311500Z 05004KT 9999 SCT038 13/12 Q1027 FM1600 05004KT 0500 FG BKN001

Laikas: 23:39 (15:39 UTC)

Prognozė

Ataskaita buvo paskelbta 49 minutes, ne 14:50 UTC
Prognozė galioja nuo 31 metu 14 UTC su 01 metu 18 UTC
Vėjas 4 kt iš Rytų/Šiaurės Rytų
Matomumas 10 km arba daugiau
Išsisklaidę debesys ne aukštis 3500 ft
Nuo 01 metu 0200 UTC
Vėjas 8 kt iš Rytų
Matomumas 10 km arba daugiau
Su prošvaistėmis ne aukštis 3500 ft
Tikimybė 30%
nuo 31 metu 16 UTC su 01 metu 00 UTC
Matomumas: 0500 m
rūkas

TAF: YPPH 311450Z 3114/0118 06004KT 9999 SCT035 FM010200 08008KT 9999 BKN035 PROB30 3116/0100 0500 FG

Orai ataskaitas ir orų prognozės (METAR, TAF).

turimą stotys yra geltonos ir raudonos taškus žemėlapyje.

Perkelti pele per norėdami pamatyti stoties vardą.

Tada spustelėkite, norėdami matyti oro stebėjimo ir prognozės.

Norėdami pakeisti žemėlapį: spustelėkite ant žalios mygtukų su juodo kryžiaus žemyn,; žalią mygtuką su brūkšneliu, jei norite nutolinti; arba žalių rodyklių gretimoms žemėlapius.


METAR-TAF: